This is the latest recevied weather packets stored in our database for station/object N8ESC. If no packets are shown the sender has not sent any weather packets the latest 10 day(s).
| Time | Temp. | Humidity | Pressure | Rain* | Wind** | Luminosity | Snow |
|---|---|---|---|---|---|---|---|
| 1777335825 | 10° C | 86% | 1000 hPa | 0 mm | - | 1 W/m² | - |
| 1777335523 | 10° C | 88% | 1000.2 hPa | 0 mm | - | 1 W/m² | - |
| 1777335219 | 10° C | 89% | 1000.1 hPa | 0 mm | - | 1 W/m² | - |
| 1777334917 | 10° C | 89% | 1000.1 hPa | 0 mm | - | 2 W/m² | - |
| 1777334615 | 9.44° C | 88% | 1000.1 hPa | 0 mm | - | 4 W/m² | - |
| 1777334312 | 9.44° C | 90% | 1000.4 hPa | 0 mm | - | 3 W/m² | - |
| 1777334006 | 9.44° C | 90% | 1000.4 hPa | 0 mm | - | 4 W/m² | - |
| 1777333703 | 9.44° C | 89% | 1000.2 hPa | 0 mm | - | 9 W/m² | - |
| 1777333400 | 9.44° C | 89% | 1000.6 hPa | 0 mm | - | 37 W/m² | - |
| 1777333098 | 9.44° C | 90% | 1000.7 hPa | 1.27 mm | - | 36 W/m² | - |
| 1777332795 | 8.89° C | 91% | 1001 hPa | 1.27 mm | - | 23 W/m² | - |
| 1777332492 | 8.89° C | 90% | 1001.2 hPa | 6.1 mm | - | 22 W/m² | - |
| 1777332188 | 8.89° C | 91% | 1001.3 hPa | 8.89 mm | - | 19 W/m² | - |
| 1777331885 | 8.89° C | 89% | 1001.7 hPa | 4.32 mm | - | 11 W/m² | - |
| 1777331583 | 8.89° C | 90% | 1001.7 hPa | 4.32 mm | - | 5 W/m² | - |
| 1777331280 | 9.44° C | 87% | 1001.8 hPa | 6.6 mm | - | 7 W/m² | - |
| 1777330977 | 9.44° C | 86% | 1001.6 hPa | 6.1 mm | - | 23 W/m² | - |
| 1777330674 | 10° C | 84% | 1002.1 hPa | 4.83 mm | - | 17 W/m² | - |
| 1777330371 | 10.56° C | 79% | 1002.4 hPa | 3.05 mm | - | 20 W/m² | - |
| 1777330069 | 11.11° C | 76% | 1002.4 hPa | 3.05 mm | - | 20 W/m² | - |
| 1777329768 | 11.67° C | 74% | 1002.3 hPa | 1.78 mm | - | 44 W/m² | - |
| 1777329466 | 12.22° C | 67% | 1001.9 hPa | 0 mm | - | 27 W/m² | - |
| 1777329163 | 12.22° C | 66% | 1001.8 hPa | 0 mm | - | 28 W/m² | - |
| 1777328861 | 12.22° C | 68% | 1001.7 hPa | 0 mm | - | 33 W/m² | - |
| 1777328558 | 12.78° C | 67% | 1001.5 hPa | 0 mm | - | 24 W/m² | - |
* Rain latest hour (hover to see other rain measurements)
** Current wind speed in m/s (hover to see current wind gust speed)